WXM80 ListenWXM80 Stop

You find our weather info also at:

UK Metoffice

WeatherCloud

Weather Underground

Northeastern Weather Network

AWEKAS

Citizen Weather Observer Program (CWOP)

HAMweather, WeatherForYou, PWS Weather


Weather Underground History page Text

Daily Summary for March 9, 2016 Units:  English    Metric   Both
« Previous Day
Next Day »
Daily Weekly Monthly Yearly Custom
  High: Low: Average:
Temperature: 73.5 °F 37.7 °F 53.7 °F
Dew Point: 50.8 °F 36.1 °F 44 °F
Humidity: 97 % 39 % 72 %
Wind Speed: 8.0 mph 0.0 mph 2.4 mph
Wind Gust: 16.1 mph - -
Wind:- - SSW
Pressure: 30.14 in 29.94 in -
Precipitation: 0.00 in    
Historical Graphs
 
 
Tabular Data for March 9, 2016
Time Temperature Dew Point Pressure Wind Wind Speed Wind Gust Humidity Rainfall Rate (Hourly)
00:02 41.5 °F 38.8 °F 30.12 in Calm     90 % 0.00 in
00:17 41.4 °F 39.0 °F 30.12 in Calm     91 % 0.00 in
00:22 41.4 °F 39.0 °F 30.12 in Calm     91 % 0.00 in
00:28 41.4 °F 39.0 °F 30.11 in Calm   1.2 mph 91 % 0.00 in
00:33 41.3 °F 38.9 °F 30.11 in Calm     91 % 0.00 in
00:38 41.1 °F 38.7 °F 30.11 in Calm     91 % 0.00 in
00:43 41.0 °F 38.6 °F 30.11 in Calm     91 % 0.00 in
00:48 40.9 °F 38.5 °F 30.11 in SSE 0.6 mph 2.3 mph 91 % 0.00 in
00:53 40.8 °F 38.4 °F 30.11 in Calm   1.2 mph 91 % 0.00 in
00:58 40.7 °F 38.3 °F 30.11 in Calm     91 % 0.00 in
01:03 40.7 °F 38.6 °F 30.11 in Calm     92 % 0.00 in
01:08 40.7 °F 38.6 °F 30.11 in Calm     92 % 0.00 in
01:13 40.6 °F 38.5 °F 30.11 in Calm     92 % 0.00 in
01:19 40.6 °F 38.5 °F 30.12 in SSE 1.1 mph 2.3 mph 92 % 0.00 in
01:24 40.5 °F 38.4 °F 30.12 in Calm   1.2 mph 92 % 0.00 in
01:29 40.5 °F 38.4 °F 30.12 in Calm     92 % 0.00 in
01:34 40.4 °F 38.3 °F 30.12 in Calm     92 % 0.00 in
01:39 40.4 °F 38.3 °F 30.12 in Calm     92 % 0.00 in
01:44 40.4 °F 38.5 °F 30.12 in Calm     93 % 0.00 in
01:49 40.3 °F 38.2 °F 30.12 in Calm     92 % 0.00 in
01:54 40.3 °F 38.4 °F 30.12 in Calm     93 % 0.00 in
01:59 40.3 °F 38.4 °F 30.12 in Calm     93 % 0.00 in
02:04 40.3 °F 38.4 °F 30.12 in Calm     93 % 0.00 in
02:10 40.2 °F 38.1 °F 30.12 in Calm     92 % 0.00 in
02:15 40.1 °F 38.0 °F 30.13 in Calm     92 % 0.00 in
02:25 40.0 °F 37.9 °F 30.12 in Calm     92 % 0.00 in
02:30 39.9 °F 38.0 °F 30.12 in SSE 0.3 mph 1.2 mph 93 % 0.00 in
02:35 39.8 °F 37.9 °F 30.11 in Calm   1.2 mph 93 % 0.00 in
02:40 39.7 °F 37.8 °F 30.12 in Calm     93 % 0.00 in
02:45 39.7 °F 37.8 °F 30.11 in Calm     93 % 0.00 in
02:50 39.6 °F 37.5 °F 30.11 in Calm     92 % 0.00 in
02:55 39.5 °F 37.6 °F 30.11 in Calm     93 % 0.00 in
03:01 39.5 °F 37.6 °F 30.12 in Calm     93 % 0.00 in
03:06 39.5 °F 37.6 °F 30.12 in Calm     93 % 0.00 in
03:11 39.5 °F 37.6 °F 30.12 in Calm   1.2 mph 93 % 0.00 in
03:16 39.5 °F 37.6 °F 30.12 in Calm     93 % 0.00 in
03:21 39.4 °F 37.5 °F 30.12 in Calm     93 % 0.00 in
03:26 39.4 °F 37.5 °F 30.12 in Calm     93 % 0.00 in
03:31 39.3 °F 37.4 °F 30.12 in Calm     93 % 0.00 in
03:36 39.2 °F 37.3 °F 30.12 in Calm     93 % 0.00 in
03:41 39.2 °F 37.3 °F 30.12 in Calm     93 % 0.00 in
03:46 39.2 °F 37.3 °F 30.12 in SSE 0.7 mph 1.2 mph 93 % 0.00 in
03:52 39.2 °F 37.3 °F 30.12 in Calm     93 % 0.00 in
03:57 39.1 °F 37.2 °F 30.12 in Calm     93 % 0.00 in
04:02 39.0 °F 37.1 °F 30.12 in Calm     93 % 0.00 in
04:07 38.9 °F 37.0 °F 30.12 in Calm     93 % 0.00 in
04:12 38.9 °F 37.0 °F 30.12 in Calm     93 % 0.00 in
04:17 38.8 °F 36.9 °F 30.13 in Calm     93 % 0.00 in
04:22 38.7 °F 36.9 °F 30.13 in Calm     93 % 0.00 in
04:27 38.7 °F 36.9 °F 30.13 in Calm   1.2 mph 93 % 0.00 in
04:32 38.6 °F 36.8 °F 30.13 in Calm     93 % 0.00 in
04:37 38.5 °F 36.7 °F 30.13 in Calm     93 % 0.00 in
04:48 38.4 °F 36.8 °F 30.12 in SSE 0.3 mph 1.2 mph 94 % 0.00 in
04:53 38.4 °F 36.8 °F 30.12 in SSE 0.9 mph 1.2 mph 94 % 0.00 in
04:58 38.4 °F 36.8 °F 30.12 in Calm   1.2 mph 94 % 0.00 in
05:03 38.4 °F 36.8 °F 30.11 in SSE 0.2 mph 1.2 mph 94 % 0.00 in
05:08 38.4 °F 36.8 °F 30.12 in SSE 0.1 mph 1.2 mph 94 % 0.00 in
05:13 38.4 °F 36.8 °F 30.11 in Calm     94 % 0.00 in
05:23 38.3 °F 36.7 °F 30.12 in Calm     94 % 0.00 in
05:28 38.4 °F 36.8 °F 30.12 in Calm     94 % 0.00 in
05:34 38.3 °F 36.7 °F 30.13 in Calm     94 % 0.00 in
05:39 38.2 °F 36.6 °F 30.13 in Calm     94 % 0.00 in
05:44 38.2 °F 36.6 °F 30.14 in Calm     94 % 0.00 in
05:49 38.0 °F 36.4 °F 30.13 in Calm     94 % 0.00 in
05:54 37.9 °F 36.3 °F 30.13 in SSE 0.4 mph 1.2 mph 94 % 0.00 in
05:59 37.8 °F 36.2 °F 30.12 in SSE 0.6 mph 1.2 mph 94 % 0.00 in
06:04 37.8 °F 36.2 °F 30.12 in SSE 0.5 mph 2.0 mph 94 % 0.00 in
06:09 37.7 °F 36.1 °F 30.11 in SSE 1.2 mph 2.3 mph 94 % 0.00 in
06:14 37.7 °F 36.1 °F 30.12 in SSE 1.0 mph 2.3 mph 94 % 0.00 in
06:19 37.8 °F 36.5 °F 30.12 in West 1.4 mph 3.5 mph 95 % 0.00 in
06:25 38.0 °F 36.7 °F 30.12 in West 0.9 mph 2.0 mph 95 % 0.00 in
06:30 38.1 °F 36.8 °F 30.13 in West 0.5 mph 2.0 mph 95 % 0.00 in
06:35 38.2 °F 36.9 °F 30.12 in Calm     95 % 0.00 in
06:40 38.2 °F 36.9 °F 30.13 in West 0.2 mph 1.2 mph 95 % 0.00 in
06:45 38.2 °F 36.9 °F 30.12 in Calm     95 % 0.00 in
06:50 38.2 °F 36.9 °F 30.12 in Calm     95 % 0.00 in
06:55 38.3 °F 37.0 °F 30.12 in Calm     95 % 0.00 in
07:05 38.6 °F 37.3 °F 30.13 in Calm     95 % 0.00 in
07:11 38.7 °F 37.4 °F 30.13 in West 0.5 mph 1.0 mph 95 % 0.00 in
07:16 38.8 °F 37.8 °F 30.13 in Calm     96 % 0.00 in
07:21 39.2 °F 38.2 °F 30.13 in Calm   1.2 mph 96 % 0.00 in
07:26 39.7 °F 38.7 °F 30.13 in Calm     96 % 0.00 in
07:31 40.2 °F 39.2 °F 30.13 in West 0.1 mph 1.0 mph 96 % 0.00 in
07:36 40.7 °F 39.6 °F 30.13 in West 1.0 mph 2.3 mph 96 % 0.00 in
07:41 41.1 °F 40.0 °F 30.13 in Calm     96 % 0.00 in
07:46 41.6 °F 40.5 °F 30.13 in West 0.2 mph 1.2 mph 96 % 0.00 in
07:51 42.1 °F 41.0 °F 30.13 in Calm   1.2 mph 96 % 0.00 in
07:56 42.5 °F 41.4 °F 30.13 in Calm     96 % 0.00 in
08:02 43.0 °F 42.2 °F 30.13 in West 1.9 mph 2.3 mph 97 % 0.00 in
08:07 43.4 °F 42.3 °F 30.13 in WNW 2.2 mph 3.5 mph 96 % 0.00 in
08:12 43.7 °F 42.6 °F 30.13 in WNW 1.6 mph 3.5 mph 96 % 0.00 in
08:17 44.0 °F 42.9 °F 30.13 in WNW 1.8 mph 3.5 mph 96 % 0.00 in
08:22 44.5 °F 43.2 °F 30.12 in WNW 1.4 mph 2.3 mph 95 % 0.00 in
08:27 45.1 °F 43.8 °F 30.12 in WNW 0.3 mph 1.2 mph 95 % 0.00 in
08:32 45.5 °F 43.9 °F 30.12 in WNW 1.4 mph 3.5 mph 94 % 0.00 in
08:37 46.3 °F 44.7 °F 30.12 in West 2.1 mph 3.5 mph 94 % 0.00 in
08:42 47.0 °F 45.1 °F 30.11 in West 1.8 mph 3.5 mph 93 % 0.00 in
08:47 47.9 °F 45.7 °F 30.11 in Calm   2.3 mph 92 % 0.00 in
08:53 48.6 °F 46.1 °F 30.11 in NE 1.1 mph 1.2 mph 91 % 0.00 in
08:58 49.1 °F 45.7 °F 30.11 in Calm   1.2 mph 88 % 0.00 in
09:03 49.8 °F 46.4 °F 30.11 in NE 0.1 mph 2.0 mph 88 % 0.00 in
09:08 50.8 °F 46.8 °F 30.11 in WNW 2.5 mph 3.5 mph 86 % 0.00 in
09:13 51.1 °F 45.5 °F 30.11 in WNW 0.8 mph 3.5 mph 81 % 0.00 in
09:18 51.2 °F 45.2 °F 30.11 in WNW 0.6 mph 1.2 mph 80 % 0.00 in
09:23 51.4 °F 45.4 °F 30.11 in WNW 3.2 mph 4.0 mph 80 % 0.00 in
09:28 51.7 °F 45.7 °F 30.12 in NW 2.1 mph 5.0 mph 80 % 0.00 in
09:33 52.0 °F 45.4 °F 30.12 in WNW 1.4 mph 3.5 mph 78 % 0.00 in
09:38 52.2 °F 44.5 °F 30.12 in WNW 4.0 mph 4.6 mph 75 % 0.00 in
09:44 52.1 °F 44.4 °F 30.12 in NW 3.2 mph 4.6 mph 75 % 0.00 in
09:49 51.7 °F 44.4 °F 30.12 in WNW 5.5 mph 6.9 mph 76 % 0.00 in
09:54 51.4 °F 44.1 °F 30.12 in NW 3.4 mph 6.9 mph 76 % 0.00 in
09:59 51.1 °F 44.5 °F 30.11 in NW 1.6 mph 3.5 mph 78 % 0.00 in
10:04 51.4 °F 44.8 °F 30.11 in NW 1.8 mph 3.5 mph 78 % 0.00 in
10:09 51.6 °F 45.0 °F 30.11 in NW 1.5 mph 3.5 mph 78 % 0.00 in
10:14 52.3 °F 45.6 °F 30.10 in NW 0.8 mph 2.3 mph 78 % 0.00 in
10:19 53.4 °F 46.4 °F 30.10 in NW 1.7 mph 3.5 mph 77 % 0.00 in
10:24 54.2 °F 46.8 °F 30.10 in SSW 1.0 mph 5.0 mph 76 % 0.00 in
10:29 55.1 °F 46.6 °F 30.10 in WNW 2.5 mph 4.6 mph 73 % 0.00 in
10:35 55.9 °F 47.4 °F 30.09 in NW 1.4 mph 4.0 mph 73 % 0.00 in
10:40 57.0 °F 48.4 °F 30.09 in NW 0.9 mph 1.2 mph 73 % 0.00 in
10:45 58.4 °F 48.3 °F 30.09 in NW 1.2 mph 2.3 mph 69 % 0.00 in
10:50 59.7 °F 48.3 °F 30.08 in North 3.2 mph 3.5 mph 66 % 0.00 in
10:55 59.3 °F 47.1 °F 30.08 in NW 3.1 mph 3.5 mph 64 % 0.00 in
11:00 58.6 °F 46.5 °F 30.08 in East 1.6 mph 3.5 mph 64 % 0.00 in
11:05 56.6 °F 45.0 °F 30.07 in East 1.7 mph 3.5 mph 65 % 0.00 in
11:15 53.6 °F 44.4 °F 30.07 in ENE 1.7 mph 3.5 mph 71 % 0.00 in
11:20 53.3 °F 44.9 °F 30.07 in ENE 0.8 mph 2.3 mph 73 % 0.00 in
11:26 53.0 °F 44.6 °F 30.07 in ENE 0.9 mph 2.3 mph 73 % 0.00 in
11:31 52.6 °F 44.9 °F 30.06 in ENE 0.6 mph 1.2 mph 75 % 0.00 in
11:36 52.7 °F 45.0 °F 30.06 in ENE 1.7 mph 2.3 mph 75 % 0.00 in
11:41 52.8 °F 45.1 °F 30.06 in ENE 2.0 mph 3.5 mph 75 % 0.00 in
11:46 52.9 °F 44.8 °F 30.06 in ENE 1.8 mph 3.5 mph 74 % 0.00 in
11:51 52.9 °F 44.8 °F 30.05 in ENE 1.8 mph 3.5 mph 74 % 0.00 in
11:56 53.2 °F 45.1 °F 30.05 in ENE 2.0 mph 3.5 mph 74 % 0.00 in
12:01 53.0 °F 44.9 °F 30.05 in ENE 2.4 mph 3.5 mph 74 % 0.00 in
12:06 53.3 °F 45.6 °F 30.05 in ENE 1.8 mph 3.5 mph 75 % 0.00 in
12:11 53.9 °F 46.2 °F 30.05 in ENE 1.1 mph 2.3 mph 75 % 0.00 in
12:17 54.4 °F 45.9 °F 30.04 in ENE 1.1 mph 2.3 mph 73 % 0.00 in
12:22 54.7 °F 46.6 °F 30.03 in ENE 1.2 mph 2.0 mph 74 % 0.00 in
12:27 55.3 °F 47.2 °F 30.03 in ENE 1.1 mph 2.3 mph 74 % 0.00 in
12:32 56.0 °F 47.5 °F 30.03 in ENE 1.2 mph 2.3 mph 73 % 0.00 in
12:37 56.6 °F 47.7 °F 30.03 in ENE 1.4 mph 2.3 mph 72 % 0.00 in
12:42 57.4 °F 48.1 °F 30.03 in ENE 0.6 mph 2.3 mph 71 % 0.00 in
12:47 58.1 °F 48.0 °F 30.02 in ENE 0.7 mph 2.3 mph 69 % 0.00 in
12:52 59.1 °F 48.9 °F 30.02 in ENE 1.9 mph 3.5 mph 69 % 0.00 in
12:57 60.0 °F 48.6 °F 30.02 in ENE 1.4 mph 2.3 mph 66 % 0.00 in
13:02 60.2 °F 48.4 °F 30.02 in ENE 1.5 mph 2.3 mph 65 % 0.00 in
13:08 60.3 °F 49.3 °F 30.01 in ENE 0.1 mph 1.2 mph 67 % 0.00 in
13:18 61.5 °F 50.8 °F 30.01 in ENE 1.5 mph 2.3 mph 68 % 0.00 in
13:23 62.3 °F 50.4 °F 30.01 in ENE 0.9 mph 2.3 mph 65 % 0.00 in
13:28 62.8 °F 49.1 °F 30.01 in ENE 3.0 mph 3.5 mph 61 % 0.00 in
13:33 63.6 °F 49.9 °F 30.01 in NNE 0.5 mph 2.3 mph 61 % 0.00 in
13:38 64.1 °F 50.4 °F 30.01 in NNE 2.2 mph 3.5 mph 61 % 0.00 in
13:43 65.1 °F 50.4 °F 30.01 in NE 2.2 mph 3.5 mph 59 % 0.00 in
13:48 64.9 °F 49.8 °F 30.01 in Calm   2.3 mph 58 % 0.00 in
13:53 64.0 °F 48.9 °F 30.01 in NE 0.8 mph 3.5 mph 58 % 0.00 in
13:59 63.2 °F 48.6 °F 30.01 in NE 1.7 mph 3.5 mph 59 % 0.00 in
14:04 62.4 °F 48.3 °F 30.01 in NE 1.7 mph 3.5 mph 60 % 0.00 in
14:09 62.1 °F 48.9 °F 30.01 in NE 1.6 mph 3.5 mph 62 % 0.00 in
14:14 61.9 °F 49.6 °F 30.00 in NE 1.0 mph 2.3 mph 64 % 0.00 in
14:19 62.2 °F 50.3 °F 30.00 in South 0.7 mph 2.3 mph 65 % 0.00 in
14:29 65.3 °F 47.2 °F 30.00 in SW 3.7 mph 5.8 mph 52 % 0.00 in
14:34 67.2 °F 47.4 °F 30.00 in SSW 4.2 mph 6.9 mph 49 % 0.00 in
14:39 68.8 °F 47.2 °F 29.99 in South 2.8 mph 4.6 mph 46 % 0.00 in
14:44 70.4 °F 47.4 °F 29.99 in SSW 1.1 mph 6.0 mph 44 % 0.00 in
14:45 72.3 °F 47.3 °F 29.97 in SSW 3.0 mph 6.0 mph 41 % 0.00 in
14:50 71.4 °F 48.3 °F 29.99 in South 3.6 mph 5.0 mph 44 % 0.00 in
14:55 72.2 °F 47.2 °F 29.99 in South 1.5 mph 10.4 mph 41 % 0.00 in
15:00 72.8 °F 47.1 °F 29.98 in South 6.6 mph 10.4 mph 40 % 0.00 in
15:05 73.2 °F 47.4 °F 29.98 in SSE 5.5 mph 9.2 mph 40 % 0.00 in
15:10 73.4 °F 46.9 °F 29.98 in South 7.1 mph 10.4 mph 39 % 0.00 in
15:15 73.5 °F 47.0 °F 29.98 in South 6.8 mph 11.5 mph 39 % 0.00 in
15:20 73.5 °F 47.7 °F 29.98 in SSW 4.1 mph 6.9 mph 40 % 0.00 in
15:25 73.3 °F 46.8 °F 29.98 in South 5.7 mph 10.4 mph 39 % 0.00 in
15:30 73.0 °F 47.9 °F 29.98 in SSE 3.7 mph 5.8 mph 41 % 0.00 in
15:35 72.8 °F 47.7 °F 29.98 in South 4.8 mph 7.0 mph 41 % 0.00 in
15:41 72.5 °F 47.5 °F 29.97 in West 2.3 mph 5.8 mph 41 % 0.00 in
16:09 70.8 °F 47.2 °F 29.97 in SSW 5.7 mph 7.0 mph 43 % 0.00 in
16:14 70.2 °F 46.6 °F 29.97 in SSW 2.5 mph 4.6 mph 43 % 0.00 in
16:19 69.8 °F 46.9 °F 29.97 in South 3.8 mph 4.6 mph 44 % 0.00 in
16:30 69.1 °F 46.9 °F 29.97 in South 4.0 mph 4.0 mph 45 % 0.00 in
16:35 68.7 °F 47.1 °F 29.97 in SSW 5.0 mph 6.9 mph 46 % 0.00 in
16:40 68.5 °F 46.9 °F 29.97 in South 4.0 mph 8.1 mph 46 % 0.00 in
16:45 68.4 °F 46.8 °F 29.97 in South 3.7 mph 7.0 mph 46 % 0.00 in
16:50 68.5 °F 46.9 °F 29.97 in SW 5.2 mph 9.2 mph 46 % 0.00 in
16:55 68.5 °F 46.9 °F 29.97 in SSW 4.8 mph 6.9 mph 46 % 0.00 in
17:00 68.4 °F 46.8 °F 29.97 in SW 6.8 mph 10.0 mph 46 % 0.00 in
17:05 68.2 °F 47.2 °F 29.97 in South 6.7 mph 12.7 mph 47 % 0.00 in
17:10 67.9 °F 46.9 °F 29.97 in SSW 7.4 mph 10.4 mph 47 % 0.00 in
17:15 67.5 °F 47.1 °F 29.97 in SSW 7.0 mph 9.2 mph 48 % 0.00 in
17:21 67.2 °F 47.4 °F 29.96 in South 5.6 mph 9.2 mph 49 % 0.00 in
17:26 66.8 °F 47.6 °F 29.96 in SSW 5.9 mph 9.2 mph 50 % 0.00 in
17:31 66.4 °F 47.7 °F 29.96 in SSW 6.5 mph 11.5 mph 51 % 0.00 in
17:36 65.9 °F 47.8 °F 29.96 in South 7.1 mph 11.5 mph 52 % 0.00 in
17:41 65.4 °F 47.8 °F 29.96 in South 8.0 mph 12.7 mph 53 % 0.00 in
17:46 64.9 °F 47.9 °F 29.96 in South 3.4 mph 8.1 mph 54 % 0.00 in
17:51 64.5 °F 48.0 °F 29.96 in South 6.7 mph 8.1 mph 55 % 0.00 in
17:56 64.0 °F 48.0 °F 29.97 in SSW 4.3 mph 9.2 mph 56 % 0.00 in
18:01 63.6 °F 48.1 °F 29.97 in South 4.3 mph 10.4 mph 57 % 0.00 in
18:06 63.2 °F 48.2 °F 29.97 in South 4.8 mph 9.2 mph 58 % 0.00 in
18:12 62.9 °F 47.9 °F 29.96 in SSW 6.4 mph 11.5 mph 58 % 0.00 in
18:17 62.6 °F 48.1 °F 29.96 in SSE 6.1 mph 11.5 mph 59 % 0.00 in
18:22 62.4 °F 48.3 °F 29.96 in South 3.7 mph 8.1 mph 60 % 0.00 in
18:27 62.1 °F 48.0 °F 29.96 in South 5.2 mph 9.2 mph 60 % 0.00 in
18:32 61.9 °F 47.9 °F 29.96 in SSW 4.6 mph 9.2 mph 60 % 0.00 in
18:37 61.8 °F 47.8 °F 29.96 in SSW 4.4 mph 10.4 mph 60 % 0.00 in
18:42 61.6 °F 47.6 °F 29.96 in South 5.0 mph 8.0 mph 60 % 0.00 in
18:47 61.5 °F 47.9 °F 29.96 in SSW 4.8 mph 5.8 mph 61 % 0.00 in
18:52 61.4 °F 47.8 °F 29.96 in SSW 5.3 mph 6.9 mph 61 % 0.00 in
18:57 61.3 °F 47.7 °F 29.95 in SSE 4.2 mph 5.8 mph 61 % 0.00 in
19:03 61.3 °F 47.7 °F 29.95 in SSW 4.3 mph 9.2 mph 61 % 0.00 in
19:08 61.2 °F 47.6 °F 29.95 in SSW 4.3 mph 9.2 mph 61 % 0.00 in
19:13 61.2 °F 47.6 °F 29.96 in South 4.5 mph 5.8 mph 61 % 0.00 in
19:18 61.2 °F 47.6 °F 29.95 in South 3.2 mph 5.8 mph 61 % 0.00 in
19:23 61.2 °F 47.2 °F 29.95 in SSW 2.7 mph 4.6 mph 60 % 0.00 in
19:28 61.3 °F 47.7 °F 29.96 in South 3.7 mph 5.0 mph 61 % 0.00 in
19:33 61.3 °F 47.3 °F 29.95 in SSW 3.8 mph 6.9 mph 60 % 0.00 in
19:38 61.4 °F 47.4 °F 29.95 in SSW 3.7 mph 5.0 mph 60 % 0.00 in
19:43 61.5 °F 47.5 °F 29.96 in SW 4.6 mph 6.0 mph 60 % 0.00 in
19:48 61.6 °F 47.6 °F 29.95 in SSW 3.3 mph 8.0 mph 60 % 0.00 in
19:54 61.6 °F 47.1 °F 29.95 in South 4.0 mph 6.9 mph 59 % 0.00 in
19:59 61.7 °F 47.2 °F 29.95 in SW 4.4 mph 6.9 mph 59 % 0.00 in
20:04 61.8 °F 47.3 °F 29.95 in SSW 4.2 mph 4.6 mph 59 % 0.00 in
20:09 61.8 °F 47.3 °F 29.95 in SSW 6.1 mph 9.2 mph 59 % 0.00 in
20:14 61.9 °F 47.4 °F 29.95 in SW 2.6 mph 6.0 mph 59 % 0.00 in
20:19 61.9 °F 47.4 °F 29.94 in South 6.2 mph 10.4 mph 59 % 0.00 in
20:24 61.9 °F 47.4 °F 29.95 in SW 6.2 mph 9.2 mph 59 % 0.00 in
20:29 62.0 °F 47.5 °F 29.95 in SW 2.7 mph 5.8 mph 59 % 0.00 in
20:34 62.0 °F 47.5 °F 29.95 in SW 6.3 mph 9.2 mph 59 % 0.00 in
20:39 62.0 °F 47.5 °F 29.96 in SSW 3.3 mph 9.2 mph 59 % 0.00 in
20:45 62.1 °F 47.6 °F 29.96 in South 3.8 mph 6.0 mph 59 % 0.00 in
20:50 62.1 °F 47.6 °F 29.96 in South 5.4 mph 9.2 mph 59 % 0.00 in
20:55 62.2 °F 47.7 °F 29.96 in SSW 6.0 mph 9.2 mph 59 % 0.00 in
21:00 62.3 °F 47.8 °F 29.96 in South 4.4 mph 11.5 mph 59 % 0.00 in
21:05 62.3 °F 47.3 °F 29.96 in WSW 4.1 mph 6.9 mph 58 % 0.00 in
21:10 62.5 °F 47.1 °F 29.95 in SSW 4.7 mph 9.2 mph 57 % 0.00 in
21:15 62.7 °F 47.2 °F 29.95 in South 6.4 mph 13.8 mph 57 % 0.00 in
21:20 62.7 °F 47.2 °F 29.96 in WSW 5.0 mph 13.8 mph 57 % 0.00 in
21:25 62.8 °F 47.3 °F 29.96 in SSW 4.5 mph 10.4 mph 57 % 0.00 in
21:30 62.8 °F 47.3 °F 29.96 in SSW 3.6 mph 6.9 mph 57 % 0.00 in
21:36 62.8 °F 47.3 °F 29.96 in SSW 4.6 mph 6.9 mph 57 % 0.00 in
21:41 62.7 °F 47.2 °F 29.97 in SW 5.6 mph 11.5 mph 57 % 0.00 in
21:46 62.7 °F 47.2 °F 29.97 in SW 5.1 mph 8.1 mph 57 % 0.00 in
21:51 62.7 °F 47.2 °F 29.97 in SW 4.1 mph 9.2 mph 57 % 0.00 in
21:56 62.7 °F 47.2 °F 29.98 in SW 7.5 mph 12.0 mph 57 % 0.00 in
22:01 62.8 °F 47.3 °F 29.98 in SW 3.6 mph 8.1 mph 57 % 0.00 in
22:06 62.8 °F 47.3 °F 29.98 in SSW 4.1 mph 5.8 mph 57 % 0.00 in
22:11 62.9 °F 47.4 °F 29.98 in SSW 2.9 mph 9.2 mph 57 % 0.00 in
22:16 63.0 °F 47.5 °F 29.98 in WSW 5.5 mph 11.5 mph 57 % 0.00 in
22:21 63.1 °F 47.1 °F 29.97 in SSW 6.8 mph 11.5 mph 56 % 0.00 in
22:27 63.4 °F 47.4 °F 29.97 in WSW 7.4 mph 13.0 mph 56 % 0.00 in
22:32 63.7 °F 47.2 °F 29.97 in SW 6.1 mph 15.0 mph 55 % 0.00 in
22:37 63.9 °F 47.4 °F 29.98 in WSW 5.3 mph 7.0 mph 55 % 0.00 in
22:47 64.3 °F 47.3 °F 29.98 in SW 4.7 mph 6.0 mph 54 % 0.00 in
22:52 64.3 °F 47.3 °F 29.97 in WSW 5.9 mph 8.1 mph 54 % 0.00 in
22:57 64.3 °F 47.3 °F 29.97 in WSW 3.3 mph 6.9 mph 54 % 0.00 in
23:02 64.3 °F 47.3 °F 29.97 in WSW 5.6 mph 11.5 mph 54 % 0.00 in
23:07 64.4 °F 47.4 °F 29.97 in SSW 7.4 mph 11.5 mph 54 % 0.00 in
23:12 64.3 °F 47.3 °F 29.97 in SSW 5.1 mph 10.0 mph 54 % 0.00 in
23:18 64.3 °F 47.3 °F 29.97 in WSW 3.2 mph 8.0 mph 54 % 0.00 in
23:23 64.3 °F 47.3 °F 29.97 in SW 3.8 mph 9.2 mph 54 % 0.00 in
23:28 64.2 °F 47.2 °F 29.96 in SW 4.4 mph 9.2 mph 54 % 0.00 in
23:33 64.1 °F 47.1 °F 29.96 in SSW 5.6 mph 10.4 mph 54 % 0.00 in
23:38 64.1 °F 47.1 °F 29.97 in SSW 7.8 mph 16.1 mph 54 % 0.00 in
23:43 64.2 °F 47.2 °F 29.97 in SW 5.0 mph 10.0 mph 54 % 0.00 in
23:48 64.3 °F 47.3 °F 29.97 in SSW 5.2 mph 9.2 mph 54 % 0.00 in
23:53 64.4 °F 47.4 °F 29.97 in SSW 4.3 mph 6.0 mph 54 % 0.00 in
23:58 64.4 °F 47.9 °F 29.97 in SW 4.1 mph 8.0 mph 55 % 0.00 in
Crab Meadow Weather
Compliments of Weather Underground - 2.75 mb

Script developed by  Jim McMurry - jmcmurry@mwt.net Adapted for the template by  Wim van der Kuil - Leuven-Template.eu

Weather Terms: Relative Humidity - The ratio of the amount of water vapor actually present in the air to the greatest amount possible at the same temperature.